Current Conditions
Mostly Cloudy
Conditions



Rainfall
0.00 (mm) - 0.00 (in)
Pressure
1018.92 (hPa) - 30.09 (inHG)
Visibility

10.0 (km) - 6.2 (miles)
   Temperature
19  °C
66°F
16  °C
Dewpoint
83  %
 Humidity
   Wind Speed
11  km/h
6  kts
7  mph
3.1  m/s
   Wind Direction
 40°
North East
   Airport Data
LTBA
Location Atatürk International 10 km (6.22 mi)
Metar :LTBA 180520Z 04006KT 9999 BKN026 19/16 Q1019 NOSIG RMK RWY17L 04005KT RWY05 03005KT RWY23 06006KT
Fri 18th October 08:20 am
   Raw Metar Info
Raw METAR is the most common format in the world for the transmission of observational weather data. It is highly standardized through the International Civil Aviation Organization (ICAO), which allows it to be understood throughout most of the world.
   API Info
Data Provided by
https://www.checkwx.com/weather/
   © Info
CSS/SVG/PHP scripts were developed by weather34.com for use in the weather34 template © 2015-2019

Guide Info provided by Metar-Wikipedia